sensor_id;sensor_type;location;lat;lon;timestamp;P1;durP1;ratioP1;P2;durP2;ratioP2
8665;SDS011;4370;48.916;8.380;2024-02-04T00:00:07;5.20;;;3.00;;
8665;SDS011;4370;48.916;8.380;2024-02-04T00:02:33;3.63;;;2.90;;
8665;SDS011;4370;48.916;8.380;2024-02-04T00:04:59;3.10;;;2.50;;
8665;SDS011;4370;48.916;8.380;2024-02-04T00:07:25;2.47;;;2.23;;
8665;SDS011;4370;48.916;8.380;2024-02-04T00:09:51;2.90;;;2.20;;
8665;SDS011;4370;48.916;8.380;2024-02-04T00:12:17;3.27;;;1.90;;
8665;SDS011;4370;48.916;8.380;2024-02-04T00:14:43;2.60;;;2.00;;
8665;SDS011;4370;48.916;8.380;2024-02-04T00:17:09;2.83;;;1.90;;
8665;SDS011;4370;48.916;8.380;2024-02-04T00:19:35;2.23;;;1.70;;
8665;SDS011;4370;48.916;8.380;2024-02-04T00:22:01;1.70;;;1.57;;
8665;SDS011;4370;48.916;8.380;2024-02-04T00:24:28;3.43;;;1.30;;
8665;SDS011;4370;48.916;8.380;2024-02-04T00:26:53;1.37;;;1.27;;
8665;SDS011;4370;48.916;8.380;2024-02-04T00:29:19;2.10;;;1.20;;
8665;SDS011;4370;48.916;8.380;2024-02-04T00:31:45;1.33;;;1.23;;
8665;SDS011;4370;48.916;8.380;2024-02-04T00:34:11;1.73;;;1.20;;
8665;SDS011;4370;48.916;8.380;2024-02-04T00:36:37;1.20;;;1.10;;
8665;SDS011;4370;48.916;8.380;2024-02-04T00:39:03;1.30;;;1.10;;
8665;SDS011;4370;48.916;8.380;2024-02-04T00:41:30;1.20;;;1.00;;
8665;SDS011;4370;48.916;8.380;2024-02-04T00:43:56;1.73;;;1.00;;
8665;SDS011;4370;48.916;8.380;2024-02-04T00:46:22;2.20;;;1.10;;
8665;SDS011;4370;48.916;8.380;2024-02-04T00:48:48;1.63;;;1.10;;
8665;SDS011;4370;48.916;8.380;2024-02-04T00:51:14;1.77;;;1.30;;
8665;SDS011;4370;48.916;8.380;2024-02-04T00:53:42;1.30;;;1.20;;
8665;SDS011;4370;48.916;8.380;2024-02-04T00:56:08;0.93;;;0.90;;
8665;SDS011;4370;48.916;8.380;2024-02-04T00:58:36;2.07;;;1.10;;
8665;SDS011;4370;48.916;8.380;2024-02-04T01:01:02;2.77;;;1.40;;
8665;SDS011;4370;48.916;8.380;2024-02-04T01:03:28;1.10;;;1.00;;
8665;SDS011;4370;48.916;8.380;2024-02-04T01:05:54;1.43;;;1.30;;
8665;SDS011;4370;48.916;8.380;2024-02-04T01:08:21;1.30;;;1.20;;
8665;SDS011;4370;48.916;8.380;2024-02-04T01:10:47;1.43;;;1.20;;
8665;SDS011;4370;48.916;8.380;2024-02-04T01:13:16;1.20;;;1.10;;
8665;SDS011;4370;48.916;8.380;2024-02-04T01:15:42;1.00;;;1.00;;
8665;SDS011;4370;48.916;8.380;2024-02-04T01:18:08;1.13;;;1.03;;
8665;SDS011;4370;48.916;8.380;2024-02-04T01:20:34;1.30;;;1.20;;
8665;SDS011;4370;48.916;8.380;2024-02-04T01:23:00;1.00;;;1.00;;
8665;SDS011;4370;48.916;8.380;2024-02-04T01:25:26;1.30;;;1.20;;
8665;SDS011;4370;48.916;8.380;2024-02-04T01:27:52;1.27;;;1.10;;
8665;SDS011;4370;48.916;8.380;2024-02-04T01:30:18;1.33;;;1.23;;
8665;SDS011;4370;48.916;8.380;2024-02-04T01:32:44;1.40;;;1.30;;
8665;SDS011;4370;48.916;8.380;2024-02-04T01:35:11;1.30;;;1.10;;
8665;SDS011;4370;48.916;8.380;2024-02-04T01:37:37;1.40;;;1.30;;
8665;SDS011;4370;48.916;8.380;2024-02-04T01:40:03;1.40;;;1.20;;
8665;SDS011;4370;48.916;8.380;2024-02-04T01:42:30;1.43;;;1.10;;
8665;SDS011;4370;48.916;8.380;2024-02-04T01:44:56;1.10;;;1.10;;
8665;SDS011;4370;48.916;8.380;2024-02-04T01:47:22;1.30;;;1.20;;
8665;SDS011;4370;48.916;8.380;2024-02-04T01:49:48;1.47;;;1.30;;
8665;SDS011;4370;48.916;8.380;2024-02-04T01:52:14;3.80;;;1.30;;
8665;SDS011;4370;48.916;8.380;2024-02-04T01:54:40;1.60;;;1.33;;
8665;SDS011;4370;48.916;8.380;2024-02-04T01:57:07;3.10;;;1.30;;
8665;SDS011;4370;48.916;8.380;2024-02-04T01:59:35;1.40;;;1.30;;
8665;SDS011;4370;48.916;8.380;2024-02-04T02:02:02;1.67;;;1.57;;
8665;SDS011;4370;48.916;8.380;2024-02-04T02:04:29;1.47;;;1.37;;
8665;SDS011;4370;48.916;8.380;2024-02-04T02:06:55;1.70;;;1.60;;
8665;SDS011;4370;48.916;8.380;2024-02-04T02:09:21;1.43;;;1.27;;
8665;SDS011;4370;48.916;8.380;2024-02-04T02:11:47;1.67;;;1.57;;
8665;SDS011;4370;48.916;8.380;2024-02-04T02:14:18;1.83;;;1.40;;
8665;SDS011;4370;48.916;8.380;2024-02-04T02:16:45;1.60;;;1.50;;
8665;SDS011;4370;48.916;8.380;2024-02-04T02:21:50;2.03;;;1.33;;
8665;SDS011;4370;48.916;8.380;2024-02-04T02:26:50;1.50;;;1.40;;
8665;SDS011;4370;48.916;8.380;2024-02-04T02:29:18;1.70;;;1.33;;
8665;SDS011;4370;48.916;8.380;2024-02-04T02:31:44;1.63;;;1.43;;
8665;SDS011;4370;48.916;8.380;2024-02-04T02:34:10;1.47;;;1.37;;
8665;SDS011;4370;48.916;8.380;2024-02-04T02:36:39;1.50;;;1.30;;
8665;SDS011;4370;48.916;8.380;2024-02-04T02:39:10;1.67;;;1.47;;
8665;SDS011;4370;48.916;8.380;2024-02-04T02:41:38;1.43;;;1.33;;
8665;SDS011;4370;48.916;8.380;2024-02-04T02:44:08;2.27;;;2.03;;
8665;SDS011;4370;48.916;8.380;2024-02-04T02:46:35;2.13;;;1.53;;
8665;SDS011;4370;48.916;8.380;2024-02-04T02:49:01;2.00;;;1.50;;
8665;SDS011;4370;48.916;8.380;2024-02-04T02:51:27;1.40;;;1.20;;
8665;SDS011;4370;48.916;8.380;2024-02-04T02:53:53;1.87;;;1.40;;
8665;SDS011;4370;48.916;8.380;2024-02-04T02:56:19;2.10;;;1.30;;
8665;SDS011;4370;48.916;8.380;2024-02-04T02:58:45;2.27;;;1.50;;
8665;SDS011;4370;48.916;8.380;2024-02-04T03:01:11;1.30;;;1.20;;
8665;SDS011;4370;48.916;8.380;2024-02-04T03:03:37;1.40;;;1.30;;
8665;SDS011;4370;48.916;8.380;2024-02-04T03:06:04;1.63;;;1.33;;
8665;SDS011;4370;48.916;8.380;2024-02-04T03:08:30;1.40;;;1.30;;
8665;SDS011;4370;48.916;8.380;2024-02-04T03:10:56;1.40;;;1.30;;
8665;SDS011;4370;48.916;8.380;2024-02-04T03:13:22;2.50;;;1.40;;
8665;SDS011;4370;48.916;8.380;2024-02-04T03:15:48;1.40;;;1.30;;
8665;SDS011;4370;48.916;8.380;2024-02-04T03:18:14;1.57;;;1.40;;
8665;SDS011;4370;48.916;8.380;2024-02-04T03:20:40;1.80;;;1.50;;
8665;SDS011;4370;48.916;8.380;2024-02-04T03:23:06;1.70;;;1.60;;
8665;SDS011;4370;48.916;8.380;2024-02-04T03:25:32;2.27;;;1.73;;
8665;SDS011;4370;48.916;8.380;2024-02-04T03:27:59;2.03;;;1.60;;
8665;SDS011;4370;48.916;8.380;2024-02-04T03:30:25;3.17;;;1.63;;
8665;SDS011;4370;48.916;8.380;2024-02-04T03:32:51;1.97;;;1.60;;
8665;SDS011;4370;48.916;8.380;2024-02-04T03:35:17;1.50;;;1.40;;
8665;SDS011;4370;48.916;8.380;2024-02-04T03:37:42;1.70;;;1.60;;
8665;SDS011;4370;48.916;8.380;2024-02-04T03:40:09;1.60;;;1.20;;
8665;SDS011;4370;48.916;8.380;2024-02-04T03:42:35;1.77;;;1.13;;
8665;SDS011;4370;48.916;8.380;2024-02-04T03:45:01;1.30;;;1.20;;
8665;SDS011;4370;48.916;8.380;2024-02-04T03:47:28;1.50;;;1.40;;
8665;SDS011;4370;48.916;8.380;2024-02-04T03:49:54;1.30;;;1.13;;
8665;SDS011;4370;48.916;8.380;2024-02-04T03:52:20;1.00;;;1.00;;
8665;SDS011;4370;48.916;8.380;2024-02-04T03:54:46;1.50;;;1.10;;
8665;SDS011;4370;48.916;8.380;2024-02-04T03:57:12;1.03;;;1.03;;
8665;SDS011;4370;48.916;8.380;2024-02-04T03:59:38;1.37;;;1.20;;
8665;SDS011;4370;48.916;8.380;2024-02-04T04:02:04;1.23;;;1.13;;
8665;SDS011;4370;48.916;8.380;2024-02-04T04:04:29;1.13;;;1.03;;
8665;SDS011;4370;48.916;8.380;2024-02-04T04:06:55;0.90;;;0.90;;
8665;SDS011;4370;48.916;8.380;2024-02-04T04:09:21;1.00;;;0.90;;
8665;SDS011;4370;48.916;8.380;2024-02-04T04:11:47;1.00;;;0.97;;
8665;SDS011;4370;48.916;8.380;2024-02-04T04:14:13;1.00;;;1.00;;
8665;SDS011;4370;48.916;8.380;2024-02-04T04:16:39;0.97;;;0.90;;
8665;SDS011;4370;48.916;8.380;2024-02-04T04:19:05;1.23;;;1.13;;
8665;SDS011;4370;48.916;8.380;2024-02-04T04:21:31;1.30;;;1.00;;
8665;SDS011;4370;48.916;8.380;2024-02-04T04:23:57;1.00;;;1.00;;
8665;SDS011;4370;48.916;8.380;2024-02-04T04:26:24;1.40;;;1.10;;
8665;SDS011;4370;48.916;8.380;2024-02-04T04:28:50;1.00;;;0.90;;
8665;SDS011;4370;48.916;8.380;2024-02-04T04:31:16;1.20;;;1.00;;
8665;SDS011;4370;48.916;8.380;2024-02-04T04:33:42;1.30;;;1.10;;
8665;SDS011;4370;48.916;8.380;2024-02-04T04:36:07;1.33;;;1.20;;
8665;SDS011;4370;48.916;8.380;2024-02-04T04:38:34;1.10;;;1.00;;
8665;SDS011;4370;48.916;8.380;2024-02-04T04:41:01;2.43;;;1.30;;
8665;SDS011;4370;48.916;8.380;2024-02-04T04:43:27;1.20;;;1.10;;
8665;SDS011;4370;48.916;8.380;2024-02-04T04:45:53;2.00;;;1.20;;
8665;SDS011;4370;48.916;8.380;2024-02-04T04:48:19;1.30;;;1.20;;
8665;SDS011;4370;48.916;8.380;2024-02-04T04:50:45;1.20;;;1.10;;
8665;SDS011;4370;48.916;8.380;2024-02-04T04:53:11;1.20;;;1.10;;
8665;SDS011;4370;48.916;8.380;2024-02-04T04:55:37;2.27;;;1.10;;
8665;SDS011;4370;48.916;8.380;2024-02-04T04:58:03;1.40;;;1.20;;
8665;SDS011;4370;48.916;8.380;2024-02-04T05:00:28;1.27;;;1.17;;
8665;SDS011;4370;48.916;8.380;2024-02-04T05:02:54;1.40;;;1.30;;
8665;SDS011;4370;48.916;8.380;2024-02-04T05:05:20;1.80;;;1.40;;
8665;SDS011;4370;48.916;8.380;2024-02-04T05:07:47;1.83;;;1.40;;
8665;SDS011;4370;48.916;8.380;2024-02-04T05:10:13;1.57;;;1.47;;
8665;SDS011;4370;48.916;8.380;2024-02-04T05:12:38;2.10;;;1.40;;
8665;SDS011;4370;48.916;8.380;2024-02-04T05:15:05;1.70;;;1.30;;
8665;SDS011;4370;48.916;8.380;2024-02-04T05:17:31;3.77;;;1.53;;
8665;SDS011;4370;48.916;8.380;2024-02-04T05:19:58;1.77;;;1.30;;
8665;SDS011;4370;48.916;8.380;2024-02-04T05:22:24;2.20;;;1.50;;
8665;SDS011;4370;48.916;8.380;2024-02-04T05:24:50;2.40;;;1.50;;
8665;SDS011;4370;48.916;8.380;2024-02-04T05:27:16;1.57;;;1.33;;
8665;SDS011;4370;48.916;8.380;2024-02-04T05:29:42;3.90;;;1.47;;
8665;SDS011;4370;48.916;8.380;2024-02-04T05:32:08;1.63;;;1.53;;
8665;SDS011;4370;48.916;8.380;2024-02-04T05:34:34;2.03;;;1.73;;
8665;SDS011;4370;48.916;8.380;2024-02-04T05:37:00;2.20;;;1.60;;
8665;SDS011;4370;48.916;8.380;2024-02-04T05:39:26;1.77;;;1.47;;
8665;SDS011;4370;48.916;8.380;2024-02-04T05:41:52;1.80;;;1.70;;
8665;SDS011;4370;48.916;8.380;2024-02-04T05:44:18;2.00;;;1.80;;
8665;SDS011;4370;48.916;8.380;2024-02-04T05:46:44;1.70;;;1.60;;
8665;SDS011;4370;48.916;8.380;2024-02-04T05:49:10;2.03;;;1.60;;
8665;SDS011;4370;48.916;8.380;2024-02-04T05:51:40;1.80;;;1.50;;
8665;SDS011;4370;48.916;8.380;2024-02-04T05:54:06;1.70;;;1.50;;
8665;SDS011;4370;48.916;8.380;2024-02-04T05:56:32;2.67;;;1.60;;
8665;SDS011;4370;48.916;8.380;2024-02-04T05:58:58;1.93;;;1.73;;
8665;SDS011;4370;48.916;8.380;2024-02-04T06:01:24;2.00;;;1.60;;
8665;SDS011;4370;48.916;8.380;2024-02-04T06:03:50;3.30;;;1.80;;
8665;SDS011;4370;48.916;8.380;2024-02-04T06:06:17;2.03;;;1.53;;
8665;SDS011;4370;48.916;8.380;2024-02-04T06:08:45;2.20;;;1.70;;
8665;SDS011;4370;48.916;8.380;2024-02-04T06:11:12;2.00;;;1.67;;
8665;SDS011;4370;48.916;8.380;2024-02-04T06:13:39;2.00;;;1.80;;
8665;SDS011;4370;48.916;8.380;2024-02-04T06:16:05;1.73;;;1.60;;
8665;SDS011;4370;48.916;8.380;2024-02-04T06:18:31;1.93;;;1.73;;
8665;SDS011;4370;48.916;8.380;2024-02-04T06:20:57;2.20;;;1.77;;
8665;SDS011;4370;48.916;8.380;2024-02-04T06:23:23;1.97;;;1.60;;
8665;SDS011;4370;48.916;8.380;2024-02-04T06:25:49;1.87;;;1.57;;
8665;SDS011;4370;48.916;8.380;2024-02-04T06:28:15;1.50;;;1.40;;
8665;SDS011;4370;48.916;8.380;2024-02-04T06:30:41;1.63;;;1.53;;
8665;SDS011;4370;48.916;8.380;2024-02-04T06:33:07;1.80;;;1.70;;
8665;SDS011;4370;48.916;8.380;2024-02-04T06:35:33;2.10;;;1.37;;
8665;SDS011;4370;48.916;8.380;2024-02-04T06:37:59;2.33;;;1.60;;
8665;SDS011;4370;48.916;8.380;2024-02-04T06:40:24;1.70;;;1.60;;
8665;SDS011;4370;48.916;8.380;2024-02-04T06:42:52;1.73;;;1.53;;
8665;SDS011;4370;48.916;8.380;2024-02-04T06:45:17;2.73;;;1.50;;
8665;SDS011;4370;48.916;8.380;2024-02-04T06:47:43;1.60;;;1.50;;
8665;SDS011;4370;48.916;8.380;2024-02-04T06:50:10;1.70;;;1.60;;
8665;SDS011;4370;48.916;8.380;2024-02-04T06:52:42;1.83;;;1.70;;
8665;SDS011;4370;48.916;8.380;2024-02-04T06:55:08;2.57;;;1.87;;
8665;SDS011;4370;48.916;8.380;2024-02-04T06:57:34;2.53;;;1.80;;
8665;SDS011;4370;48.916;8.380;2024-02-04T07:00:00;2.23;;;1.70;;
8665;SDS011;4370;48.916;8.380;2024-02-04T07:02:30;2.27;;;1.77;;
8665;SDS011;4370;48.916;8.380;2024-02-04T07:04:56;2.73;;;2.00;;
8665;SDS011;4370;48.916;8.380;2024-02-04T07:07:22;1.80;;;1.70;;
8665;SDS011;4370;48.916;8.380;2024-02-04T07:09:48;1.67;;;1.53;;
8665;SDS011;4370;48.916;8.380;2024-02-04T07:12:14;4.00;;;2.43;;
8665;SDS011;4370;48.916;8.380;2024-02-04T07:14:40;1.70;;;1.60;;
8665;SDS011;4370;48.916;8.380;2024-02-04T07:17:05;1.50;;;1.40;;
8665;SDS011;4370;48.916;8.380;2024-02-04T07:19:31;2.30;;;1.90;;
8665;SDS011;4370;48.916;8.380;2024-02-04T07:21:58;1.73;;;1.50;;
8665;SDS011;4370;48.916;8.380;2024-02-04T07:24:23;2.57;;;1.87;;
8665;SDS011;4370;48.916;8.380;2024-02-04T07:26:49;2.03;;;1.50;;
8665;SDS011;4370;48.916;8.380;2024-02-04T07:29:16;2.50;;;2.10;;
8665;SDS011;4370;48.916;8.380;2024-02-04T07:31:42;2.47;;;1.60;;
8665;SDS011;4370;48.916;8.380;2024-02-04T07:34:08;1.87;;;1.30;;
8665;SDS011;4370;48.916;8.380;2024-02-04T07:36:34;1.30;;;1.20;;
8665;SDS011;4370;48.916;8.380;2024-02-04T07:39:00;1.13;;;1.03;;
8665;SDS011;4370;48.916;8.380;2024-02-04T07:41:29;1.80;;;1.23;;
8665;SDS011;4370;48.916;8.380;2024-02-04T07:43:55;3.03;;;1.07;;
8665;SDS011;4370;48.916;8.380;2024-02-04T07:46:21;1.00;;;1.00;;
8665;SDS011;4370;48.916;8.380;2024-02-04T07:48:47;1.00;;;1.00;;
8665;SDS011;4370;48.916;8.380;2024-02-04T07:51:13;1.47;;;1.00;;
8665;SDS011;4370;48.916;8.380;2024-02-04T07:53:39;1.20;;;1.10;;
8665;SDS011;4370;48.916;8.380;2024-02-04T07:56:05;1.77;;;1.10;;
8665;SDS011;4370;48.916;8.380;2024-02-04T07:58:32;1.50;;;1.20;;
8665;SDS011;4370;48.916;8.380;2024-02-04T08:00:58;0.90;;;0.90;;
8665;SDS011;4370;48.916;8.380;2024-02-04T08:03:24;1.10;;;1.00;;
8665;SDS011;4370;48.916;8.380;2024-02-04T08:05:50;2.37;;;1.20;;
8665;SDS011;4370;48.916;8.380;2024-02-04T08:08:17;1.40;;;1.30;;
8665;SDS011;4370;48.916;8.380;2024-02-04T08:10:44;1.60;;;1.20;;
8665;SDS011;4370;48.916;8.380;2024-02-04T08:13:10;1.43;;;1.20;;
8665;SDS011;4370;48.916;8.380;2024-02-04T08:15:37;1.27;;;1.20;;
8665;SDS011;4370;48.916;8.380;2024-02-04T08:18:03;2.50;;;1.27;;
8665;SDS011;4370;48.916;8.380;2024-02-04T08:20:29;2.37;;;1.13;;
8665;SDS011;4370;48.916;8.380;2024-02-04T08:22:55;2.27;;;1.17;;
8665;SDS011;4370;48.916;8.380;2024-02-04T08:25:21;1.30;;;1.20;;
8665;SDS011;4370;48.916;8.380;2024-02-04T08:27:47;3.20;;;0.83;;
8665;SDS011;4370;48.916;8.380;2024-02-04T08:30:13;0.90;;;0.90;;
8665;SDS011;4370;48.916;8.380;2024-02-04T08:32:39;1.20;;;1.10;;
8665;SDS011;4370;48.916;8.380;2024-02-04T08:35:05;1.70;;;1.10;;
8665;SDS011;4370;48.916;8.380;2024-02-04T08:37:31;1.20;;;1.10;;
8665;SDS011;4370;48.916;8.380;2024-02-04T08:39:58;1.67;;;0.90;;
8665;SDS011;4370;48.916;8.380;2024-02-04T08:42:24;0.90;;;0.90;;
8665;SDS011;4370;48.916;8.380;2024-02-04T08:44:50;0.80;;;0.80;;
8665;SDS011;4370;48.916;8.380;2024-02-04T08:47:18;1.00;;;0.90;;
8665;SDS011;4370;48.916;8.380;2024-02-04T08:49:44;0.80;;;0.80;;
8665;SDS011;4370;48.916;8.380;2024-02-04T08:52:10;1.00;;;0.90;;
8665;SDS011;4370;48.916;8.380;2024-02-04T08:54:36;1.63;;;0.90;;
8665;SDS011;4370;48.916;8.380;2024-02-04T08:57:02;1.00;;;1.00;;
8665;SDS011;4370;48.916;8.380;2024-02-04T08:59:29;1.00;;;0.90;;
8665;SDS011;4370;48.916;8.380;2024-02-04T09:01:54;1.13;;;0.90;;
8665;SDS011;4370;48.916;8.380;2024-02-04T09:04:20;1.37;;;0.90;;
8665;SDS011;4370;48.916;8.380;2024-02-04T09:06:46;1.00;;;1.00;;
8665;SDS011;4370;48.916;8.380;2024-02-04T09:09:12;1.77;;;1.33;;
8665;SDS011;4370;48.916;8.380;2024-02-04T09:11:38;0.83;;;0.83;;
8665;SDS011;4370;48.916;8.380;2024-02-04T09:14:06;0.80;;;0.80;;
8665;SDS011;4370;48.916;8.380;2024-02-04T09:16:32;1.10;;;1.00;;
8665;SDS011;4370;48.916;8.380;2024-02-04T09:18:58;0.80;;;0.80;;
8665;SDS011;4370;48.916;8.380;2024-02-04T09:21:24;0.77;;;0.77;;
8665;SDS011;4370;48.916;8.380;2024-02-04T09:23:50;0.90;;;0.90;;
8665;SDS011;4370;48.916;8.380;2024-02-04T09:26:16;1.67;;;1.27;;
8665;SDS011;4370;48.916;8.380;2024-02-04T09:28:42;0.80;;;0.80;;
8665;SDS011;4370;48.916;8.380;2024-02-04T09:31:08;0.90;;;0.90;;
8665;SDS011;4370;48.916;8.380;2024-02-04T09:33:34;1.60;;;0.80;;
8665;SDS011;4370;48.916;8.380;2024-02-04T09:36:03;1.00;;;0.80;;
8665;SDS011;4370;48.916;8.380;2024-02-04T09:38:29;1.13;;;0.90;;
8665;SDS011;4370;48.916;8.380;2024-02-04T09:40:55;0.90;;;0.90;;
8665;SDS011;4370;48.916;8.380;2024-02-04T09:43:21;2.23;;;0.80;;
8665;SDS011;4370;48.916;8.380;2024-02-04T09:45:47;1.47;;;0.93;;
8665;SDS011;4370;48.916;8.380;2024-02-04T09:48:14;0.93;;;0.93;;
8665;SDS011;4370;48.916;8.380;2024-02-04T09:50:44;1.10;;;0.93;;
8665;SDS011;4370;48.916;8.380;2024-02-04T09:53:10;1.33;;;0.93;;
8665;SDS011;4370;48.916;8.380;2024-02-04T09:55:39;0.83;;;0.80;;
8665;SDS011;4370;48.916;8.380;2024-02-04T09:58:06;1.50;;;1.00;;
8665;SDS011;4370;48.916;8.380;2024-02-04T10:00:32;1.10;;;0.80;;
8665;SDS011;4370;48.916;8.380;2024-02-04T10:02:59;0.93;;;0.80;;
8665;SDS011;4370;48.916;8.380;2024-02-04T10:05:26;0.83;;;0.83;;
8665;SDS011;4370;48.916;8.380;2024-02-04T10:07:52;1.43;;;0.87;;
8665;SDS011;4370;48.916;8.380;2024-02-04T10:10:18;1.17;;;0.80;;
8665;SDS011;4370;48.916;8.380;2024-02-04T10:12:44;1.43;;;0.90;;
8665;SDS011;4370;48.916;8.380;2024-02-04T10:15:10;1.53;;;0.90;;
8665;SDS011;4370;48.916;8.380;2024-02-04T10:17:41;0.80;;;0.80;;
8665;SDS011;4370;48.916;8.380;2024-02-04T10:20:09;1.00;;;0.90;;
8665;SDS011;4370;48.916;8.380;2024-02-04T10:22:35;1.33;;;1.13;;
8665;SDS011;4370;48.916;8.380;2024-02-04T10:25:05;1.13;;;1.03;;
8665;SDS011;4370;48.916;8.380;2024-02-04T10:27:32;2.60;;;1.37;;
8665;SDS011;4370;48.916;8.380;2024-02-04T10:29:58;1.20;;;1.10;;
8665;SDS011;4370;48.916;8.380;2024-02-04T10:32:24;1.40;;;1.30;;
8665;SDS011;4370;48.916;8.380;2024-02-04T10:34:51;1.83;;;1.63;;
8665;SDS011;4370;48.916;8.380;2024-02-04T10:37:17;1.20;;;1.00;;
8665;SDS011;4370;48.916;8.380;2024-02-04T10:39:43;1.37;;;1.20;;
8665;SDS011;4370;48.916;8.380;2024-02-04T10:42:09;2.37;;;1.30;;
8665;SDS011;4370;48.916;8.380;2024-02-04T10:44:37;1.10;;;1.10;;
8665;SDS011;4370;48.916;8.380;2024-02-04T10:47:05;1.10;;;1.00;;
8665;SDS011;4370;48.916;8.380;2024-02-04T10:49:32;0.90;;;0.90;;
8665;SDS011;4370;48.916;8.380;2024-02-04T10:51:59;0.90;;;0.90;;
8665;SDS011;4370;48.916;8.380;2024-02-04T10:54:25;0.93;;;0.90;;
8665;SDS011;4370;48.916;8.380;2024-02-04T10:56:55;1.37;;;1.27;;
8665;SDS011;4370;48.916;8.380;2024-02-04T10:59:23;1.40;;;1.30;;
8665;SDS011;4370;48.916;8.380;2024-02-04T11:01:49;2.63;;;1.40;;
8665;SDS011;4370;48.916;8.380;2024-02-04T11:04:16;1.40;;;1.30;;
8665;SDS011;4370;48.916;8.380;2024-02-04T11:06:43;1.40;;;1.00;;
8665;SDS011;4370;48.916;8.380;2024-02-04T11:09:09;1.63;;;1.10;;
8665;SDS011;4370;48.916;8.380;2024-02-04T11:11:36;2.40;;;1.20;;
8665;SDS011;4370;48.916;8.380;2024-02-04T11:14:03;1.10;;;0.93;;
8665;SDS011;4370;48.916;8.380;2024-02-04T11:19:18;1.57;;;1.27;;
8665;SDS011;4370;48.916;8.380;2024-02-04T11:21:52;1.97;;;1.10;;
8665;SDS011;4370;48.916;8.380;2024-02-04T11:27:00;1.10;;;0.97;;
8665;SDS011;4370;48.916;8.380;2024-02-04T11:29:26;1.97;;;1.20;;
8665;SDS011;4370;48.916;8.380;2024-02-04T11:31:52;2.07;;;1.23;;
8665;SDS011;4370;48.916;8.380;2024-02-04T11:34:18;1.70;;;1.20;;
8665;SDS011;4370;48.916;8.380;2024-02-04T11:36:45;1.97;;;1.10;;
8665;SDS011;4370;48.916;8.380;2024-02-04T11:39:11;1.77;;;1.23;;
8665;SDS011;4370;48.916;8.380;2024-02-04T11:41:44;1.23;;;1.13;;
8665;SDS011;4370;48.916;8.380;2024-02-04T11:44:11;1.63;;;1.20;;
8665;SDS011;4370;48.916;8.380;2024-02-04T11:46:37;2.27;;;1.40;;
8665;SDS011;4370;48.916;8.380;2024-02-04T11:49:03;1.43;;;1.30;;
8665;SDS011;4370;48.916;8.380;2024-02-04T11:51:39;1.30;;;1.20;;
8665;SDS011;4370;48.916;8.380;2024-02-04T11:54:06;1.13;;;1.03;;
8665;SDS011;4370;48.916;8.380;2024-02-04T11:56:32;1.17;;;1.07;;
8665;SDS011;4370;48.916;8.380;2024-02-04T11:58:58;2.30;;;1.10;;
8665;SDS011;4370;48.916;8.380;2024-02-04T12:01:24;1.70;;;1.10;;
8665;SDS011;4370;48.916;8.380;2024-02-04T12:03:50;1.10;;;1.00;;
8665;SDS011;4370;48.916;8.380;2024-02-04T12:06:17;2.20;;;1.50;;
8665;SDS011;4370;48.916;8.380;2024-02-04T12:08:43;1.47;;;1.10;;
8665;SDS011;4370;48.916;8.380;2024-02-04T12:11:09;1.30;;;1.20;;
8665;SDS011;4370;48.916;8.380;2024-02-04T12:13:35;1.90;;;1.30;;
8665;SDS011;4370;48.916;8.380;2024-02-04T12:16:04;1.37;;;1.07;;
8665;SDS011;4370;48.916;8.380;2024-02-04T12:18:30;3.47;;;1.80;;
8665;SDS011;4370;48.916;8.380;2024-02-04T12:20:56;1.63;;;1.30;;
8665;SDS011;4370;48.916;8.380;2024-02-04T12:23:23;2.37;;;1.40;;
8665;SDS011;4370;48.916;8.380;2024-02-04T12:25:50;1.73;;;1.47;;
8665;SDS011;4370;48.916;8.380;2024-02-04T12:28:16;2.03;;;1.47;;
8665;SDS011;4370;48.916;8.380;2024-02-04T12:30:54;3.43;;;2.50;;
8665;SDS011;4370;48.916;8.380;2024-02-04T12:33:20;1.63;;;1.53;;
8665;SDS011;4370;48.916;8.380;2024-02-04T12:35:52;2.80;;;1.97;;
8665;SDS011;4370;48.916;8.380;2024-02-04T12:38:21;2.17;;;1.63;;
8665;SDS011;4370;48.916;8.380;2024-02-04T12:40:47;1.50;;;1.30;;
8665;SDS011;4370;48.916;8.380;2024-02-04T12:43:13;3.03;;;1.20;;
8665;SDS011;4370;48.916;8.380;2024-02-04T12:45:39;1.30;;;1.20;;
8665;SDS011;4370;48.916;8.380;2024-02-04T12:48:05;1.33;;;1.20;;
8665;SDS011;4370;48.916;8.380;2024-02-04T12:50:31;1.30;;;1.20;;
8665;SDS011;4370;48.916;8.380;2024-02-04T12:53:04;1.30;;;1.20;;
8665;SDS011;4370;48.916;8.380;2024-02-04T12:55:30;1.30;;;1.20;;
8665;SDS011;4370;48.916;8.380;2024-02-04T12:58:12;1.43;;;1.30;;
8665;SDS011;4370;48.916;8.380;2024-02-04T13:00:42;1.57;;;1.20;;
8665;SDS011;4370;48.916;8.380;2024-02-04T13:03:08;1.63;;;1.23;;
8665;SDS011;4370;48.916;8.380;2024-02-04T13:05:34;1.50;;;1.40;;
8665;SDS011;4370;48.916;8.380;2024-02-04T13:08:01;1.20;;;1.10;;
8665;SDS011;4370;48.916;8.380;2024-02-04T13:10:37;1.40;;;1.20;;
8665;SDS011;4370;48.916;8.380;2024-02-04T13:13:03;2.03;;;1.20;;
8665;SDS011;4370;48.916;8.380;2024-02-04T13:15:39;1.33;;;1.20;;
8665;SDS011;4370;48.916;8.380;2024-02-04T13:18:05;1.40;;;1.30;;
8665;SDS011;4370;48.916;8.380;2024-02-04T13:20:31;1.30;;;1.20;;
8665;SDS011;4370;48.916;8.380;2024-02-04T13:22:58;1.67;;;1.13;;
8665;SDS011;4370;48.916;8.380;2024-02-04T13:25:25;2.17;;;1.40;;
8665;SDS011;4370;48.916;8.380;2024-02-04T13:27:51;1.33;;;1.23;;
8665;SDS011;4370;48.916;8.380;2024-02-04T13:30:18;1.40;;;1.30;;
8665;SDS011;4370;48.916;8.380;2024-02-04T13:32:44;1.23;;;1.13;;
8665;SDS011;4370;48.916;8.380;2024-02-04T13:35:11;1.50;;;1.33;;
8665;SDS011;4370;48.916;8.380;2024-02-04T13:37:38;1.20;;;1.10;;
8665;SDS011;4370;48.916;8.380;2024-02-04T13:40:04;1.13;;;1.03;;
8665;SDS011;4370;48.916;8.380;2024-02-04T13:42:32;2.03;;;1.47;;
8665;SDS011;4370;48.916;8.380;2024-02-04T13:44:59;1.27;;;1.07;;
8665;SDS011;4370;48.916;8.380;2024-02-04T13:47:26;1.90;;;1.33;;
8665;SDS011;4370;48.916;8.380;2024-02-04T13:49:52;1.30;;;1.10;;
8665;SDS011;4370;48.916;8.380;2024-02-04T13:52:18;2.37;;;1.27;;
8665;SDS011;4370;48.916;8.380;2024-02-04T13:54:45;1.40;;;1.30;;
8665;SDS011;4370;48.916;8.380;2024-02-04T13:57:11;1.37;;;1.27;;
8665;SDS011;4370;48.916;8.380;2024-02-04T13:59:37;2.77;;;1.40;;
8665;SDS011;4370;48.916;8.380;2024-02-04T14:02:03;1.40;;;1.20;;
8665;SDS011;4370;48.916;8.380;2024-02-04T14:04:30;1.53;;;1.20;;
8665;SDS011;4370;48.916;8.380;2024-02-04T14:06:56;1.20;;;1.10;;
8665;SDS011;4370;48.916;8.380;2024-02-04T14:09:22;1.20;;;1.10;;
8665;SDS011;4370;48.916;8.380;2024-02-04T14:11:48;1.20;;;1.10;;
8665;SDS011;4370;48.916;8.380;2024-02-04T14:14:14;2.37;;;1.30;;
8665;SDS011;4370;48.916;8.380;2024-02-04T14:16:40;1.67;;;0.97;;
8665;SDS011;4370;48.916;8.380;2024-02-04T14:19:06;1.30;;;1.20;;
8665;SDS011;4370;48.916;8.380;2024-02-04T14:21:32;1.30;;;1.10;;
8665;SDS011;4370;48.916;8.380;2024-02-04T14:23:58;1.50;;;1.10;;
8665;SDS011;4370;48.916;8.380;2024-02-04T14:26:24;1.87;;;1.30;;
8665;SDS011;4370;48.916;8.380;2024-02-04T14:28:50;1.30;;;1.20;;
8665;SDS011;4370;48.916;8.380;2024-02-04T14:31:16;1.20;;;1.10;;
8665;SDS011;4370;48.916;8.380;2024-02-04T14:33:42;1.37;;;1.27;;
8665;SDS011;4370;48.916;8.380;2024-02-04T14:36:09;0.90;;;0.90;;
8665;SDS011;4370;48.916;8.380;2024-02-04T14:38:35;0.80;;;0.80;;
8665;SDS011;4370;48.916;8.380;2024-02-04T14:41:04;1.03;;;1.00;;
8665;SDS011;4370;48.916;8.380;2024-02-04T14:43:30;1.27;;;1.13;;
8665;SDS011;4370;48.916;8.380;2024-02-04T14:45:56;1.17;;;1.00;;
8665;SDS011;4370;48.916;8.380;2024-02-04T14:48:23;1.13;;;1.03;;
8665;SDS011;4370;48.916;8.380;2024-02-04T14:50:49;1.20;;;1.10;;
8665;SDS011;4370;48.916;8.380;2024-02-04T14:53:15;1.63;;;1.20;;
8665;SDS011;4370;48.916;8.380;2024-02-04T14:55:41;1.77;;;1.30;;
8665;SDS011;4370;48.916;8.380;2024-02-04T14:58:08;1.33;;;1.10;;
8665;SDS011;4370;48.916;8.380;2024-02-04T15:00:34;1.40;;;1.23;;
8665;SDS011;4370;48.916;8.380;2024-02-04T15:03:01;2.60;;;1.43;;
8665;SDS011;4370;48.916;8.380;2024-02-04T15:05:27;2.43;;;1.33;;
8665;SDS011;4370;48.916;8.380;2024-02-04T15:07:53;1.20;;;1.10;;
8665;SDS011;4370;48.916;8.380;2024-02-04T15:10:21;1.80;;;1.37;;
8665;SDS011;4370;48.916;8.380;2024-02-04T15:12:48;1.10;;;1.00;;
8665;SDS011;4370;48.916;8.380;2024-02-04T15:15:17;1.30;;;1.20;;
8665;SDS011;4370;48.916;8.380;2024-02-04T15:17:43;1.40;;;1.27;;
8665;SDS011;4370;48.916;8.380;2024-02-04T15:20:09;1.20;;;1.10;;